Time;durP1;ratioP1;P1;durP2;ratioP2;P2;SDS_P1;SDS_P2;PMS_P1;PMS_P2;Temp;Humidity;BMP_temperature;BMP_pressure;BME280_temperature;BME280_humidity;BME280_pressure;Samples;Min_cycle;Max_cycle;Signal;HPM_P1;HPM_P2
2022/03/11 00:01:36;;;;;;;;;0.00;0.00;18.90;99.90;;;;;;5011399;28;9479;-51
2022/03/11 00:04:26;;;;;;;;;0.00;0.00;18.90;99.90;;;;;;5014096;28;10016;-47
2022/03/11 00:06:58;;;;;;;;;0.00;0.00;18.90;99.90;;;;;;5013286;28;9612;-50
2022/03/11 00:09:28;;;;;;;;;0.00;0.00;18.90;99.90;;;;;;5010840;28;9756;-49
2022/03/11 00:12:03;;;;;;;;;0.00;0.00;18.80;99.90;;;;;;5011260;28;10294;-52
2022/03/11 00:14:33;;;;;;;;;0.00;0.00;18.80;99.90;;;;;;5016387;28;9659;-46
2022/03/11 00:17:04;;;;;;;;;0.00;0.00;18.70;99.90;;;;;;5005350;28;9581;-48
2022/03/11 00:19:35;;;;;;;;;0.00;0.00;18.70;99.90;;;;;;5008898;28;9446;-47
2022/03/11 00:22:06;;;;;;;;;0.00;0.00;18.70;99.90;;;;;;5012985;28;9538;-47
2022/03/11 00:24:37;;;;;;;;;0.00;0.00;18.70;99.90;;;;;;5010851;28;9566;-50
2022/03/11 00:27:07;;;;;;;;;0.00;0.00;18.70;99.90;;;;;;5010376;28;9720;-51
2022/03/11 00:29:38;;;;;;;;;0.00;0.00;18.70;99.90;;;;;;5014108;28;10415;-48
2022/03/11 00:32:09;;;;;;;;;0.00;0.00;18.70;99.90;;;;;;5010551;28;9745;-47
2022/03/11 00:34:40;;;;;;;;;0.00;0.00;18.70;99.90;;;;;;5015545;28;9603;-50
2022/03/11 00:37:14;;;;;;;;;0.00;0.00;18.70;99.90;;;;;;5015486;28;9628;-49
2022/03/11 00:39:46;;;;;;;;;0.00;0.00;18.70;99.90;;;;;;5013919;28;9758;-49
2022/03/11 00:42:16;;;;;;;;;0.00;0.00;18.70;99.90;;;;;;5009196;28;9626;-50
2022/03/11 00:44:46;;;;;;;;;0.00;0.00;18.70;99.90;;;;;;5006796;28;9619;-49
2022/03/11 00:47:17;;;;;;;;;0.00;0.00;18.60;99.90;;;;;;5013412;28;10040;-48
2022/03/11 00:49:47;;;;;;;;;0.00;0.00;18.60;99.90;;;;;;5011139;28;9658;-49
2022/03/11 00:52:20;;;;;;;;;0.00;0.00;18.60;99.90;;;;;;5011493;28;9641;-48
2022/03/11 00:54:51;;;;;;;;;0.25;0.25;18.60;99.90;;;;;;5013385;28;9673;-50
2022/03/11 00:57:22;;;;;;;;;0.00;0.00;18.60;99.90;;;;;;5012362;28;9846;-45
2022/03/11 00:59:52;;;;;;;;;1.75;0.00;18.60;99.90;;;;;;5014109;28;9793;-50
2022/03/11 01:02:23;;;;;;;;;0.00;0.00;18.60;99.90;;;;;;5011830;28;9690;-49
2022/03/11 01:04:55;;;;;;;;;0.00;0.00;18.60;99.90;;;;;;5014815;28;10438;-50
2022/03/11 01:07:25;;;;;;;;;0.00;0.00;18.50;99.90;;;;;;5014194;28;9655;-49
2022/03/11 01:09:56;;;;;;;;;0.00;0.00;18.50;99.90;;;;;;5011884;28;9793;-48
2022/03/11 01:12:26;;;;;;;;;0.00;0.00;18.40;99.90;;;;;;5012936;28;9662;-50
2022/03/11 01:14:58;;;;;;;;;0.25;0.25;18.40;99.90;;;;;;5014240;28;9785;-52
2022/03/11 01:17:29;;;;;;;;;0.00;0.00;18.40;99.90;;;;;;5012531;28;9939;-50
2022/03/11 01:20:00;;;;;;;;;0.00;0.00;18.30;99.90;;;;;;5018102;28;10051;-50
2022/03/11 01:22:32;;;;;;;;;0.50;0.50;18.30;99.90;;;;;;5008535;28;10123;-48
2022/03/11 01:25:05;;;;;;;;;1.00;1.00;18.20;99.90;;;;;;5013864;28;10228;-50
2022/03/11 01:27:38;;;;;;;;;3.25;3.00;18.20;99.90;;;;;;5009005;28;9962;-47
2022/03/11 01:30:13;;;;;;;;;5.00;5.00;18.20;99.90;;;;;;5011498;28;10479;-49
2022/03/11 01:32:44;;;;;;;;;7.50;7.50;18.10;99.90;;;;;;5011515;28;10578;-50
2022/03/11 01:35:13;;;;;;;;;8.50;8.00;18.10;99.90;;;;;;5011321;28;10607;-49
2022/03/11 01:37:45;;;;;;;;;10.75;10.75;18.10;99.90;;;;;;5008519;28;10828;-49
2022/03/11 01:40:15;;;;;;;;;10.75;10.75;18.00;99.90;;;;;;5012140;28;10477;-49
2022/03/11 01:42:46;;;;;;;;;9.50;9.50;18.00;99.90;;;;;;5013967;28;10629;-50
2022/03/11 01:45:17;;;;;;;;;3.50;3.50;18.00;99.90;;;;;;5010212;28;10833;-51
2022/03/11 01:47:49;;;;;;;;;1.75;1.75;18.00;99.90;;;;;;5004441;28;10660;-49
2022/03/11 01:50:19;;;;;;;;;0.75;0.75;18.00;99.90;;;;;;5009181;28;10412;-47
2022/03/11 01:52:49;;;;;;;;;1.50;0.00;18.00;99.90;;;;;;5006924;28;10411;-48
2022/03/11 01:55:21;;;;;;;;;0.00;0.00;17.90;99.90;;;;;;5006326;28;11058;-49
2022/03/11 01:57:52;;;;;;;;;0.00;0.00;18.00;99.90;;;;;;5006682;28;10194;-51
2022/03/11 02:00:23;;;;;;;;;4.00;0.50;17.90;99.90;;;;;;5012022;28;9930;-48
2022/03/11 02:02:54;;;;;;;;;0.25;0.25;17.80;99.90;;;;;;5008699;28;10177;-46
2022/03/11 02:05:25;;;;;;;;;0.50;0.50;17.90;99.90;;;;;;5011060;28;10022;-47
2022/03/11 02:07:59;;;;;;;;;0.00;0.00;17.90;99.90;;;;;;5008834;28;10054;-46
2022/03/11 02:10:30;;;;;;;;;0.00;0.00;17.90;99.90;;;;;;5009371;28;10801;-51
2022/03/11 02:13:05;;;;;;;;;0.75;0.75;17.80;99.90;;;;;;5009129;28;10202;-52
2022/03/11 02:15:36;;;;;;;;;0.00;0.00;17.80;99.90;;;;;;5010354;28;10128;-51
2022/03/11 02:18:08;;;;;;;;;0.75;0.75;17.70;99.90;;;;;;5008111;28;10039;-50
2022/03/11 02:20:39;;;;;;;;;2.50;1.00;17.70;99.90;;;;;;5004858;28;10136;-49
2022/03/11 02:23:12;;;;;;;;;0.50;0.25;17.70;99.90;;;;;;5013504;28;11025;-50
2022/03/11 02:25:43;;;;;;;;;0.00;0.00;17.60;99.90;;;;;;5010993;28;10087;-49
2022/03/11 02:28:14;;;;;;;;;1.25;1.00;17.60;99.90;;;;;;5011937;28;10451;-51
2022/03/11 02:30:45;;;;;;;;;1.25;1.25;17.60;99.90;;;;;;5005993;28;10403;-50
2022/03/11 02:33:15;;;;;;;;;1.50;1.50;17.50;99.90;;;;;;5004453;28;10564;-51
2022/03/11 02:35:45;;;;;;;;;2.00;2.00;17.50;99.90;;;;;;5006503;28;11115;-48
2022/03/11 02:38:16;;;;;;;;;4.00;4.00;17.50;99.90;;;;;;5008409;28;10669;-50
2022/03/11 02:40:47;;;;;;;;;5.00;5.00;17.50;99.90;;;;;;5007809;28;10755;-47
2022/03/11 02:43:20;;;;;;;;;6.50;6.50;17.50;99.90;;;;;;5006985;28;10593;-48
2022/03/11 02:45:51;;;;;;;;;7.75;6.00;17.40;99.90;;;;;;5004648;28;11392;-49
2022/03/11 02:48:22;;;;;;;;;6.75;6.75;17.30;99.90;;;;;;5009517;28;10895;-47
2022/03/11 02:50:54;;;;;;;;;4.00;4.00;17.40;99.90;;;;;;5024713;28;10891;-48
2022/03/11 02:53:25;;;;;;;;;3.50;3.50;17.30;99.90;;;;;;5010996;28;11049;-47
2022/03/11 02:55:58;;;;;;;;;4.00;4.00;17.30;99.90;;;;;;5008157;28;10803;-49
2022/03/11 02:58:29;;;;;;;;;1.75;1.75;17.20;99.90;;;;;;5011988;28;11480;-49
2022/03/11 03:01:04;;;;;;;;;1.00;1.00;17.20;99.90;;;;;;5012439;28;10976;-46
2022/03/11 03:03:34;;;;;;;;;2.00;1.00;17.20;99.90;;;;;;5015238;28;10719;-48
2022/03/11 03:06:06;;;;;;;;;0.00;0.00;17.10;99.90;;;;;;5011613;28;10386;-47
2022/03/11 03:08:38;;;;;;;;;3.00;0.75;17.10;99.90;;;;;;5013074;28;10392;-49
2022/03/11 03:11:07;;;;;;;;;2.00;1.00;17.10;99.90;;;;;;5016328;28;10788;-50
2022/03/11 03:13:38;;;;;;;;;1.00;1.00;17.00;99.90;;;;;;5012994;28;10570;-49
2022/03/11 03:16:09;;;;;;;;;0.00;0.00;17.00;99.90;;;;;;5012049;28;10855;-49
2022/03/11 03:18:40;;;;;;;;;1.50;0.25;16.90;99.90;;;;;;5016187;28;10630;-48
2022/03/11 03:21:12;;;;;;;;;1.00;0.00;16.90;99.90;;;;;;5018023;28;11095;-48
2022/03/11 03:23:43;;;;;;;;;1.00;1.00;16.90;99.90;;;;;;5015404;28;10703;-49
2022/03/11 03:26:15;;;;;;;;;0.25;0.25;16.80;99.90;;;;;;5012545;28;10681;-48
2022/03/11 03:28:46;;;;;;;;;0.25;0.25;16.80;99.90;;;;;;5016604;28;10501;-49
2022/03/11 03:31:23;;;;;;;;;3.00;2.00;16.80;99.90;;;;;;5011954;28;10427;-48
2022/03/11 03:33:53;;;;;;;;;1.00;1.00;16.70;99.90;;;;;;5008731;28;10836;-47
2022/03/11 03:36:24;;;;;;;;;1.50;1.50;16.70;99.90;;;;;;5016129;28;11464;-49
2022/03/11 03:38:55;;;;;;;;;1.00;1.00;16.70;99.90;;;;;;5015560;28;10876;-47
2022/03/11 03:41:25;;;;;;;;;2.50;1.00;16.60;99.90;;;;;;5018440;28;10883;-48
2022/03/11 03:43:56;;;;;;;;;1.25;1.25;16.50;99.90;;;;;;5012630;28;11538;-47
2022/03/11 03:46:26;;;;;;;;;1.00;1.00;16.50;99.90;;;;;;5012599;28;10680;-51
2022/03/11 03:48:58;;;;;;;;;3.00;2.00;16.50;99.90;;;;;;5012953;28;10887;-50
2022/03/11 03:51:28;;;;;;;;;1.00;1.00;16.50;99.90;;;;;;5013051;28;10908;-48
2022/03/11 03:54:00;;;;;;;;;2.50;1.00;16.40;99.90;;;;;;5013194;28;10830;-49
2022/03/11 03:56:31;;;;;;;;;0.00;0.00;16.40;99.90;;;;;;5015793;28;10813;-49
2022/03/11 03:59:04;;;;;;;;;1.00;1.00;16.40;99.90;;;;;;5012735;28;10862;-49
2022/03/11 04:01:37;;;;;;;;;1.00;1.00;16.30;99.90;;;;;;5013767;28;11758;-48
2022/03/11 04:04:09;;;;;;;;;1.50;1.50;16.30;99.90;;;;;;5011451;28;11138;-48
2022/03/11 04:06:42;;;;;;;;;0.50;0.50;16.30;99.90;;;;;;5012325;28;10972;-49
2022/03/11 04:09:12;;;;;;;;;2.00;1.00;16.20;99.90;;;;;;5010508;28;11509;-46
2022/03/11 04:11:44;;;;;;;;;0.00;0.00;16.20;99.90;;;;;;5015539;28;10925;-50
2022/03/11 04:14:16;;;;;;;;;1.75;1.00;16.10;99.90;;;;;;5017651;28;10961;-48
2022/03/11 04:16:48;;;;;;;;;2.50;2.50;16.10;99.90;;;;;;5009051;28;11118;-48
2022/03/11 04:19:19;;;;;;;;;2.00;2.00;16.10;99.90;;;;;;5013618;28;11064;-49
2022/03/11 04:21:50;;;;;;;;;2.00;2.00;16.00;99.90;;;;;;5005721;28;11009;-47
2022/03/11 04:24:23;;;;;;;;;4.00;2.25;16.00;99.90;;;;;;5011256;28;11128;-48
2022/03/11 04:26:54;;;;;;;;;2.75;2.75;16.00;99.90;;;;;;5011588;28;11109;-49
2022/03/11 04:29:26;;;;;;;;;4.00;2.25;15.90;99.90;;;;;;5016465;28;11048;-46
2022/03/11 04:31:56;;;;;;;;;4.00;2.00;15.90;99.90;;;;;;5009140;28;11281;-45
2022/03/11 04:34:27;;;;;;;;;2.00;2.00;15.90;99.90;;;;;;5016961;28;11073;-48
2022/03/11 04:36:58;;;;;;;;;2.00;2.00;15.90;99.90;;;;;;5013713;28;11206;-50
2022/03/11 04:39:29;;;;;;;;;1.00;1.00;15.90;99.90;;;;;;5007910;28;11186;-50
2022/03/11 04:42:02;;;;;;;;;1.75;1.75;15.80;99.90;;;;;;5008773;28;11090;-48
2022/03/11 04:44:34;;;;;;;;;1.00;1.00;15.80;99.90;;;;;;5009536;28;10989;-49
2022/03/11 04:47:06;;;;;;;;;1.50;1.50;15.70;99.90;;;;;;5014739;28;11068;-48
2022/03/11 04:49:35;;;;;;;;;1.00;1.00;15.70;99.90;;;;;;5012180;28;10891;-49
2022/03/11 04:52:07;;;;;;;;;1.00;1.00;15.70;99.90;;;;;;5015129;28;10887;-50
2022/03/11 04:54:37;;;;;;;;;1.00;1.00;15.60;99.90;;;;;;5011323;28;11015;-47
2022/03/11 04:57:09;;;;;;;;;2.50;1.25;15.70;99.90;;;;;;5012259;28;10818;-49
2022/03/11 04:59:40;;;;;;;;;1.50;1.50;15.70;99.90;;;;;;5012229;28;12030;-49
2022/03/11 05:02:11;;;;;;;;;1.00;1.00;15.70;99.90;;;;;;5009335;28;11195;-48
2022/03/11 05:04:42;;;;;;;;;1.00;1.00;15.60;99.90;;;;;;5011305;28;11077;-48
2022/03/11 05:07:13;;;;;;;;;3.00;3.00;15.60;99.90;;;;;;5010993;28;10897;-48
2022/03/11 05:09:43;;;;;;;;;1.00;1.00;15.60;99.90;;;;;;5012033;28;11090;-48
2022/03/11 05:12:14;;;;;;;;;1.00;1.00;15.50;99.90;;;;;;5013626;28;11132;-48
2022/03/11 05:14:45;;;;;;;;;1.00;1.00;15.50;99.90;;;;;;5011612;28;11026;-48
2022/03/11 05:17:16;;;;;;;;;1.00;1.00;15.50;99.90;;;;;;5010964;28;10895;-46
2022/03/11 05:19:47;;;;;;;;;1.50;1.50;15.50;99.90;;;;;;5008961;28;11071;-48
2022/03/11 05:22:20;;;;;;;;;1.50;1.50;15.40;99.90;;;;;;5012516;28;11088;-45
2022/03/11 05:24:51;;;;;;;;;2.00;2.00;15.40;99.90;;;;;;5006309;28;11378;-48
2022/03/11 05:27:22;;;;;;;;;2.00;2.00;15.40;99.90;;;;;;5008040;28;11135;-49
2022/03/11 05:29:52;;;;;;;;;6.50;3.50;15.30;99.90;;;;;;5011338;28;11587;-50
2022/03/11 05:32:23;;;;;;;;;2.50;2.50;15.30;99.90;;;;;;5012908;28;11510;-47
2022/03/11 05:34:55;;;;;;;;;3.00;3.00;15.20;99.90;;;;;;5014222;28;11504;-46
2022/03/11 05:37:26;;;;;;;;;2.00;2.00;15.20;99.90;;;;;;5012105;28;11629;-48
2022/03/11 05:39:56;;;;;;;;;2.50;2.50;15.20;99.90;;;;;;5011550;28;11767;-47
2022/03/11 05:42:27;;;;;;;;;3.00;3.00;15.10;99.90;;;;;;5010911;28;11212;-49
2022/03/11 05:44:57;;;;;;;;;1.75;1.75;15.00;99.90;;;;;;5010658;28;11472;-48
2022/03/11 05:47:29;;;;;;;;;2.25;2.00;15.00;99.90;;;;;;5011176;28;11446;-50
2022/03/11 05:50:01;;;;;;;;;2.00;2.00;15.00;99.90;;;;;;5011302;28;11456;-48
2022/03/11 05:52:34;;;;;;;;;2.00;2.00;14.90;99.90;;;;;;5012624;28;12344;-47
2022/03/11 05:55:05;;;;;;;;;2.00;2.00;14.90;99.90;;;;;;5015427;28;11462;-46
2022/03/11 05:57:37;;;;;;;;;2.50;2.50;14.90;99.90;;;;;;5012018;28;11889;-46
2022/03/11 06:00:08;;;;;;;;;3.50;2.00;14.90;99.90;;;;;;5007902;28;11438;-46
2022/03/11 06:02:42;;;;;;;;;2.00;2.00;14.70;99.90;;;;;;5015795;28;11483;-48
2022/03/11 06:05:11;;;;;;;;;4.00;4.00;14.70;99.90;;;;;;5008735;28;12213;-49
2022/03/11 06:07:42;;;;;;;;;2.00;2.00;14.60;99.90;;;;;;5006207;28;11444;-49
2022/03/11 06:10:13;;;;;;;;;5.00;3.25;14.60;99.90;;;;;;5009706;28;11641;-49
2022/03/11 06:12:44;;;;;;;;;4.00;4.00;14.60;99.90;;;;;;5011057;28;11483;-49
2022/03/11 06:15:15;;;;;;;;;3.75;3.75;14.50;99.90;;;;;;5011390;28;11502;-50
2022/03/11 06:17:46;;;;;;;;;6.25;5.00;14.50;99.90;;;;;;5009510;28;11636;-47
2022/03/11 06:20:19;;;;;;;;;4.50;4.50;14.50;99.90;;;;;;5009897;28;11525;-50
2022/03/11 06:22:50;;;;;;;;;4.00;4.00;14.40;99.90;;;;;;5012182;28;11512;-47
2022/03/11 06:25:21;;;;;;;;;7.00;7.00;14.40;99.90;;;;;;5012275;28;12236;-49
2022/03/11 06:27:52;;;;;;;;;2.00;2.00;14.30;99.90;;;;;;5010969;28;11481;-49
2022/03/11 06:30:22;;;;;;;;;7.00;5.00;14.20;99.90;;;;;;5009998;28;11452;-49
2022/03/11 06:32:54;;;;;;;;;4.00;4.00;14.30;99.90;;;;;;5008445;28;11465;-49
2022/03/11 06:35:25;;;;;;;;;4.00;4.00;14.20;99.90;;;;;;5009516;28;11502;-46
2022/03/11 06:37:57;;;;;;;;;4.50;4.00;14.20;99.90;;;;;;5014221;28;11467;-50
2022/03/11 06:40:27;;;;;;;;;8.00;7.25;14.20;99.90;;;;;;5009956;28;11539;-49
2022/03/11 06:42:59;;;;;;;;;7.00;7.00;14.10;99.90;;;;;;5008530;28;11443;-48
2022/03/11 06:45:31;;;;;;;;;5.75;5.75;14.10;99.90;;;;;;5011658;28;11484;-49
2022/03/11 06:48:06;;;;;;;;;6.00;5.00;14.10;99.90;;;;;;5012631;28;11533;-47
2022/03/11 06:50:36;;;;;;;;;4.00;3.50;14.00;99.90;;;;;;5010594;28;11506;-50
2022/03/11 06:53:09;;;;;;;;;5.00;5.00;13.90;99.90;;;;;;5008933;28;11479;-48
2022/03/11 06:55:40;;;;;;;;;4.00;4.00;13.90;99.90;;;;;;5012774;28;11542;-50
2022/03/11 06:58:11;;;;;;;;;4.25;4.25;13.90;99.90;;;;;;5009872;28;11544;-50
2022/03/11 07:00:41;;;;;;;;;5.00;5.00;13.80;99.90;;;;;;5007596;28;11510;-49
2022/03/11 07:03:14;;;;;;;;;4.00;3.00;13.80;99.90;;;;;;5004407;28;11559;-48
2022/03/11 07:05:44;;;;;;;;;3.75;1.00;13.80;99.90;;;;;;5015145;28;11464;-48
2022/03/11 07:08:17;;;;;;;;;5.75;4.00;13.80;99.90;;;;;;5004739;28;11448;-49
2022/03/11 07:10:51;;;;;;;;;2.75;2.75;13.70;99.90;;;;;;5011409;28;11488;-47
2022/03/11 07:13:21;;;;;;;;;5.25;4.00;13.70;99.90;;;;;;5008830;28;11529;-51
2022/03/11 07:15:51;;;;;;;;;4.25;4.25;13.70;99.90;;;;;;5010388;28;11446;-45
2022/03/11 07:18:22;;;;;;;;;3.50;3.00;13.60;99.90;;;;;;5008605;28;11499;-48
2022/03/11 07:20:53;;;;;;;;;3.50;3.50;13.60;99.90;;;;;;5011795;28;11498;-48
2022/03/11 07:23:30;;;;;;;;;3.50;3.50;13.60;99.90;;;;;;5014582;28;11497;-48
2022/03/11 07:26:00;;;;;;;;;4.00;4.00;13.50;99.90;;;;;;5006459;28;12330;-50
2022/03/11 07:28:30;;;;;;;;;3.75;3.75;13.50;99.90;;;;;;5014402;28;11529;-50
2022/03/11 07:31:01;;;;;;;;;4.00;4.00;13.50;99.90;;;;;;5011091;28;11573;-50
2022/03/11 07:33:32;;;;;;;;;3.75;3.75;13.40;99.90;;;;;;5008343;28;11525;-49
2022/03/11 07:36:02;;;;;;;;;4.00;4.00;13.30;99.90;;;;;;5007472;28;11719;-47
2022/03/11 07:38:32;;;;;;;;;5.50;5.50;13.30;99.90;;;;;;5008390;28;11534;-50
2022/03/11 07:41:03;;;;;;;;;4.50;4.50;13.20;99.90;;;;;;5008162;28;11692;-49
2022/03/11 07:43:35;;;;;;;;;4.00;4.00;13.20;99.90;;;;;;5011762;28;11562;-50
2022/03/11 07:46:15;;;;;;;;;8.00;8.00;13.20;99.90;;;;;;5013315;28;12299;-48
2022/03/11 07:48:45;;;;;;;;;5.50;5.50;13.20;99.90;;;;;;5015685;28;11531;-47
2022/03/11 07:51:17;;;;;;;;;7.50;7.50;13.20;99.90;;;;;;5012590;28;11537;-48
2022/03/11 07:53:48;;;;;;;;;11.75;11.75;13.10;99.90;;;;;;5014863;28;11602;-48
2022/03/11 07:56:20;;;;;;;;;12.00;12.00;13.00;99.90;;;;;;5013702;28;11720;-48
2022/03/11 07:58:50;;;;;;;;;10.25;10.25;13.00;99.90;;;;;;5016244;28;11998;-48
2022/03/11 08:01:21;;;;;;;;;6.50;6.50;12.90;99.90;;;;;;5010068;28;11603;-48
2022/03/11 08:03:53;;;;;;;;;2.25;2.25;12.90;99.90;;;;;;5009623;28;11564;-46
2022/03/11 08:06:27;;;;;;;;;3.50;3.00;12.90;99.90;;;;;;5016317;28;11528;-46
2022/03/11 08:09:00;;;;;;;;;5.25;5.00;12.90;99.90;;;;;;5015675;28;11518;-45
2022/03/11 08:11:31;;;;;;;;;4.00;4.00;12.90;99.90;;;;;;5017844;28;11565;-45
2022/03/11 08:14:03;;;;;;;;;2.25;2.25;12.80;99.90;;;;;;5014536;28;11515;-44
2022/03/11 08:16:34;;;;;;;;;4.00;4.00;12.70;99.90;;;;;;5013570;28;11554;-46
2022/03/11 08:19:09;;;;;;;;;3.00;3.00;12.70;99.90;;;;;;5008536;28;11664;-46
2022/03/11 08:21:52;;;;;;;;;2.25;2.25;12.60;99.90;;;;;;5013958;28;11524;-48
2022/03/11 08:24:22;;;;;;;;;4.75;3.50;12.60;99.90;;;;;;5014102;28;11561;-50
2022/03/11 08:26:54;;;;;;;;;5.00;3.25;12.50;99.90;;;;;;5015705;28;11512;-47
2022/03/11 08:29:31;;;;;;;;;4.00;4.00;12.50;99.90;;;;;;5014242;28;11567;-47
2022/03/11 08:32:03;;;;;;;;;5.75;5.75;12.50;99.90;;;;;;5003453;28;11515;-47
2022/03/11 08:34:34;;;;;;;;;7.50;7.50;12.50;99.90;;;;;;5011976;28;11744;-48
2022/03/11 08:37:25;;;;;;;;;6.25;6.25;12.50;99.90;;;;;;5013656;28;11556;-46
2022/03/11 08:39:59;;;;;;;;;6.00;6.00;12.40;99.90;;;;;;5012897;28;11532;-46
2022/03/11 08:42:29;;;;;;;;;7.50;7.50;12.40;99.90;;;;;;5009467;28;11878;-46
2022/03/11 08:45:00;;;;;;;;;12.75;12.75;12.30;99.90;;;;;;5014331;28;11508;-49
2022/03/11 08:47:32;;;;;;;;;8.50;6.75;12.30;99.90;;;;;;5009876;28;11698;-45
2022/03/11 08:50:03;;;;;;;;;10.25;10.25;12.30;99.90;;;;;;5010975;28;11634;-48
2022/03/11 08:52:34;;;;;;;;;9.00;7.75;12.20;99.90;;;;;;5010125;28;11545;-48
2022/03/11 08:55:05;;;;;;;;;7.00;7.00;12.20;99.90;;;;;;5010232;28;11544;-49
2022/03/11 08:57:35;;;;;;;;;4.50;4.50;12.10;99.90;;;;;;5009259;28;11559;-45
2022/03/11 09:00:13;;;;;;;;;5.50;5.50;12.10;99.90;;;;;;5010232;28;11509;-49
2022/03/11 09:02:47;;;;;;;;;7.75;7.75;12.10;99.90;;;;;;5005247;28;12313;-49
2022/03/11 09:05:20;;;;;;;;;6.75;6.75;12.10;99.90;;;;;;5011177;28;11506;-48
2022/03/11 09:07:52;;;;;;;;;8.00;7.25;12.00;99.90;;;;;;5007934;28;11496;-48
2022/03/11 09:10:22;;;;;;;;;7.75;7.75;11.90;99.90;;;;;;5010233;28;11676;-48
2022/03/11 09:12:53;;;;;;;;;8.75;8.75;11.90;99.90;;;;;;5010074;28;11499;-48
2022/03/11 09:15:24;;;;;;;;;13.50;13.50;11.90;99.90;;;;;;5012956;28;11760;-46
2022/03/11 09:17:55;;;;;;;;;12.25;12.25;11.80;99.90;;;;;;5014316;28;12454;-46
2022/03/11 09:20:27;;;;;;;;;12.75;12.75;11.80;99.90;;;;;;5013860;28;11536;-46
2022/03/11 09:23:02;;;;;;;;;12.75;12.75;11.80;99.90;;;;;;5012984;28;12305;-45
2022/03/11 09:25:34;;;;;;;;;11.50;11.50;11.80;99.90;;;;;;5009549;28;11594;-47
2022/03/11 09:28:10;;;;;;;;;9.50;9.50;11.80;99.90;;;;;;5011736;28;11710;-45
2022/03/11 09:30:40;;;;;;;;;3.75;3.75;11.70;99.90;;;;;;5011337;28;12160;-46
2022/03/11 09:33:12;;;;;;;;;3.00;3.00;11.70;99.90;;;;;;5012378;28;11555;-46
2022/03/11 09:35:42;;;;;;;;;3.00;3.00;11.70;99.90;;;;;;5010544;28;11590;-50
2022/03/11 09:38:12;;;;;;;;;4.00;4.00;11.70;99.90;;;;;;5012759;28;11710;-46
2022/03/11 09:40:45;;;;;;;;;3.75;3.75;11.70;99.90;;;;;;5012160;28;11498;-43
2022/03/11 09:43:19;;;;;;;;;4.75;3.00;11.60;99.90;;;;;;5011644;28;11507;-45
2022/03/11 09:45:51;;;;;;;;;3.00;3.00;11.60;99.90;;;;;;5012037;28;12265;-46
2022/03/11 09:48:22;;;;;;;;;0.75;0.75;11.60;99.90;;;;;;5014559;28;11540;-49
2022/03/11 09:50:53;;;;;;;;;3.00;3.00;11.50;99.90;;;;;;5009194;28;11598;-46
2022/03/11 09:53:24;;;;;;;;;3.50;3.50;11.50;99.90;;;;;;5015212;28;11547;-49
2022/03/11 09:55:54;;;;;;;;;2.00;2.00;11.50;99.90;;;;;;5014044;28;12304;-46
2022/03/11 09:58:25;;;;;;;;;3.00;3.00;11.50;99.90;;;;;;5013355;28;11524;-51
2022/03/11 10:00:59;;;;;;;;;5.00;3.00;11.50;99.90;;;;;;5009804;28;11557;-49
2022/03/11 10:03:30;;;;;;;;;6.75;6.00;11.50;99.90;;;;;;5005216;28;11571;-48
2022/03/11 10:06:00;;;;;;;;;5.75;5.50;11.50;99.90;;;;;;5006997;28;11502;-49
2022/03/11 10:08:31;;;;;;;;;3.25;3.25;11.40;99.90;;;;;;5006732;28;12655;-47
2022/03/11 10:11:27;;;;;;;;;3.75;3.75;11.40;99.90;;;;;;5010471;28;13412;-49
2022/03/11 10:14:08;;;;;;;;;4.00;4.00;11.40;99.90;;;;;;5010473;28;11506;-47
2022/03/11 10:16:39;;;;;;;;;4.00;4.00;11.30;99.90;;;;;;5002595;28;11694;-48
2022/03/11 10:19:10;;;;;;;;;2.25;2.25;11.20;99.90;;;;;;5009115;28;11958;-48
2022/03/11 10:21:45;;;;;;;;;3.75;3.75;11.20;99.90;;;;;;5013029;28;11544;-45
2022/03/11 10:24:19;;;;;;;;;5.25;5.25;11.20;99.90;;;;;;5012724;28;12943;-46
2022/03/11 10:26:58;;;;;;;;;3.50;3.50;11.20;99.90;;;;;;5010235;28;11524;-47
2022/03/11 10:29:34;;;;;;;;;2.00;2.00;11.10;99.90;;;;;;5012414;28;11555;-49
2022/03/11 10:32:07;;;;;;;;;4.00;2.75;11.10;99.90;;;;;;5005503;28;11536;-46
2022/03/11 10:34:39;;;;;;;;;3.75;3.75;11.10;99.90;;;;;;5010164;28;11542;-48
2022/03/11 10:37:12;;;;;;;;;5.50;4.00;11.00;99.90;;;;;;5009580;28;11524;-46
2022/03/11 10:39:47;;;;;;;;;3.00;3.00;11.00;99.90;;;;;;5008719;28;11547;-48
2022/03/11 10:42:21;;;;;;;;;3.00;2.00;11.00;99.90;;;;;;5006310;28;11545;-46
2022/03/11 10:45:04;;;;;;;;;2.25;2.25;10.90;99.90;;;;;;5012071;28;12311;-47
2022/03/11 10:47:36;;;;;;;;;2.50;2.50;10.90;99.90;;;;;;5009710;28;11527;-49
2022/03/11 10:50:13;;;;;;;;;1.50;1.50;10.80;99.90;;;;;;5009311;28;11532;-48
2022/03/11 10:52:49;;;;;;;;;3.75;2.75;10.80;99.90;;;;;;5009817;28;11724;-48
2022/03/11 10:55:28;;;;;;;;;2.00;2.00;10.80;99.90;;;;;;5012573;28;11581;-50
2022/03/11 10:58:04;;;;;;;;;3.50;3.50;10.60;99.90;;;;;;5003942;28;11520;-49
2022/03/11 11:00:42;;;;;;;;;2.50;2.50;10.60;99.90;;;;;;5002493;28;11501;-49
2022/03/11 11:03:13;;;;;;;;;2.00;2.00;10.60;99.90;;;;;;5009988;28;11555;-46
2022/03/11 11:05:44;;;;;;;;;1.50;1.50;10.60;99.90;;;;;;5004664;28;11650;-45
2022/03/11 11:08:15;;;;;;;;;2.00;2.00;10.60;99.90;;;;;;5010486;28;11632;-47
2022/03/11 11:10:46;;;;;;;;;3.00;3.00;10.50;99.90;;;;;;5007326;28;12513;-50
2022/03/11 11:13:16;;;;;;;;;2.00;2.00;10.40;99.90;;;;;;5005791;28;11577;-47
2022/03/11 11:15:47;;;;;;;;;1.00;1.00;10.40;99.90;;;;;;5011049;28;11503;-47
2022/03/11 11:18:21;;;;;;;;;2.25;2.25;10.40;99.90;;;;;;5011849;28;11626;-48
2022/03/11 11:20:54;;;;;;;;;1.00;1.00;10.30;99.90;;;;;;5010745;28;11621;-48
2022/03/11 11:23:25;;;;;;;;;2.75;2.75;10.30;99.90;;;;;;5009013;28;11518;-47
2022/03/11 11:25:57;;;;;;;;;2.00;2.00;10.30;99.90;;;;;;5012291;28;11531;-48
2022/03/11 11:28:30;;;;;;;;;1.00;1.00;10.30;99.90;;;;;;5014330;28;11908;-45
2022/03/11 11:31:02;;;;;;;;;2.00;2.00;10.30;99.90;;;;;;5011832;28;11510;-46
2022/03/11 11:33:34;;;;;;;;;2.00;2.00;10.30;99.90;;;;;;5014367;28;11510;-48
2022/03/11 11:36:04;;;;;;;;;2.75;2.75;10.30;99.90;;;;;;5011573;28;12603;-44
2022/03/11 11:38:42;;;;;;;;;1.00;1.00;10.30;99.90;;;;;;5016107;28;11547;-46
2022/03/11 11:41:28;;;;;;;;;2.00;2.00;10.20;99.90;;;;;;5013489;28;12266;-48
2022/03/11 11:44:05;;;;;;;;;0.00;0.00;10.20;99.90;;;;;;5014177;28;12305;-46
2022/03/11 11:46:37;;;;;;;;;2.00;2.00;10.10;99.90;;;;;;5015146;28;12313;-47
2022/03/11 11:49:16;;;;;;;;;2.00;2.00;10.00;99.90;;;;;;5015076;28;11578;-46
2022/03/11 11:51:48;;;;;;;;;1.25;1.25;10.10;99.90;;;;;;5011210;28;11537;-46
2022/03/11 11:54:33;;;;;;;;;4.25;3.00;9.90;99.90;;;;;;5012888;28;11537;-46
2022/03/11 11:57:05;;;;;;;;;2.00;2.00;9.90;99.90;;;;;;5012429;28;11552;-48
2022/03/11 11:59:41;;;;;;;;;1.25;1.25;10.00;99.90;;;;;;5011153;28;11614;-47
2022/03/11 12:02:27;;;;;;;;;2.00;2.00;9.90;99.90;;;;;;5015612;28;11486;-49
2022/03/11 12:04:59;;;;;;;;;5.00;2.00;9.90;99.90;;;;;;5007143;28;11633;-49
2022/03/11 12:07:50;;;;;;;;;1.00;1.00;9.90;99.90;;;;;;5014097;28;11588;-47
2022/03/11 12:10:27;;;;;;;;;0.50;0.50;9.90;99.90;;;;;;5012404;28;11549;-47
2022/03/11 12:13:00;;;;;;;;;2.00;2.00;9.90;99.90;;;;;;5012560;28;11509;-49
2022/03/11 12:15:34;;;;;;;;;3.00;3.00;9.80;99.90;;;;;;5006267;28;12307;-47
2022/03/11 12:18:44;;;;;;;;;2.00;2.00;9.80;99.90;;;;;;5009057;28;11547;-48
2022/03/11 12:21:38;;;;;;;;;3.25;3.25;9.80;99.90;;;;;;5027504;28;11513;-49
2022/03/11 12:24:32;;;;;;;;;1.75;1.75;9.80;99.90;;;;;;5016234;28;11528;-49
2022/03/11 12:27:03;;;;;;;;;2.00;2.00;9.80;99.90;;;;;;5013114;28;11540;-50
2022/03/11 12:29:39;;;;;;;;;2.00;2.00;9.70;99.90;;;;;;5012918;28;11667;-48
2022/03/11 12:32:15;;;;;;;;;1.00;1.00;9.70;99.90;;;;;;5013565;28;12402;-47
2022/03/11 12:34:49;;;;;;;;;2.00;2.00;9.70;99.90;;;;;;5006894;28;11572;-47
2022/03/11 12:37:20;;;;;;;;;1.00;1.00;9.70;99.90;;;;;;5010631;28;11532;-48
2022/03/11 12:39:51;;;;;;;;;2.00;2.00;9.60;99.90;;;;;;5012654;28;11595;-48
2022/03/11 12:42:39;;;;;;;;;1.00;1.00;9.60;99.90;;;;;;5013689;28;11658;-50
2022/03/11 12:45:11;;;;;;;;;1.50;1.50;9.50;99.90;;;;;;5010154;28;12377;-48
2022/03/11 12:47:42;;;;;;;;;1.25;1.25;9.50;99.90;;;;;;5008349;28;11555;-46
2022/03/11 12:50:13;;;;;;;;;0.50;0.50;9.50;99.90;;;;;;5012021;28;11527;-50
2022/03/11 12:52:43;;;;;;;;;2.00;2.00;9.50;99.90;;;;;;5009942;28;11488;-49
2022/03/11 12:55:35;;;;;;;;;3.75;2.00;9.50;99.90;;;;;;5016305;28;11533;-49
2022/03/11 12:58:16;;;;;;;;;2.50;1.00;9.40;99.90;;;;;;5011263;28;11685;-47
2022/03/11 13:00:47;;;;;;;;;1.00;1.00;9.40;99.90;;;;;;5014882;28;11528;-49
2022/03/11 13:03:17;;;;;;;;;2.00;2.00;9.40;99.90;;;;;;5009116;28;11552;-49
2022/03/11 13:05:50;;;;;;;;;1.50;1.50;9.30;99.90;;;;;;5016540;28;11537;-48
2022/03/11 13:08:21;;;;;;;;;1.00;1.00;9.30;99.90;;;;;;5011258;28;11681;-49
2022/03/11 13:10:54;;;;;;;;;2.00;2.00;9.20;99.90;;;;;;5009404;28;11502;-47
2022/03/11 13:13:26;;;;;;;;;1.75;1.75;9.20;99.90;;;;;;5010161;28;11642;-49
2022/03/11 13:16:02;;;;;;;;;2.00;2.00;9.20;99.90;;;;;;5013635;28;11568;-46